sensor_id;sensor_type;location;lat;lon;timestamp;P1;durP1;ratioP1;P2;durP2;ratioP2
5961;SDS011;3007;50.770;0.250;2024-02-23T00:02:07;13.17;;;2.27;;
5961;SDS011;3007;50.770;0.250;2024-02-23T00:04:34;10.23;;;2.07;;
5961;SDS011;3007;50.770;0.250;2024-02-23T00:07:01;12.13;;;2.60;;
5961;SDS011;3007;50.770;0.250;2024-02-23T00:09:30;11.60;;;2.70;;
5961;SDS011;3007;50.770;0.250;2024-02-23T00:11:57;14.23;;;2.37;;
5961;SDS011;3007;50.770;0.250;2024-02-23T00:14:23;15.80;;;2.10;;
5961;SDS011;3007;50.770;0.250;2024-02-23T00:16:50;8.63;;;1.93;;
5961;SDS011;3007;50.770;0.250;2024-02-23T00:19:17;15.07;;;2.53;;
5961;SDS011;3007;50.770;0.250;2024-02-23T00:21:45;17.90;;;2.30;;
5961;SDS011;3007;50.770;0.250;2024-02-23T00:24:15;19.07;;;2.40;;
5961;SDS011;3007;50.770;0.250;2024-02-23T00:26:44;13.20;;;2.80;;
5961;SDS011;3007;50.770;0.250;2024-02-23T00:29:11;13.20;;;2.07;;
5961;SDS011;3007;50.770;0.250;2024-02-23T00:31:38;14.77;;;2.43;;
5961;SDS011;3007;50.770;0.250;2024-02-23T00:34:06;15.10;;;2.57;;
5961;SDS011;3007;50.770;0.250;2024-02-23T00:36:35;17.27;;;2.63;;
5961;SDS011;3007;50.770;0.250;2024-02-23T00:39:02;15.57;;;2.37;;
5961;SDS011;3007;50.770;0.250;2024-02-23T00:41:29;12.77;;;2.37;;
5961;SDS011;3007;50.770;0.250;2024-02-23T00:43:57;13.17;;;2.50;;
5961;SDS011;3007;50.770;0.250;2024-02-23T00:46:24;10.10;;;2.27;;
5961;SDS011;3007;50.770;0.250;2024-02-23T00:48:51;16.80;;;2.80;;
5961;SDS011;3007;50.770;0.250;2024-02-23T00:51:18;8.97;;;2.20;;
5961;SDS011;3007;50.770;0.250;2024-02-23T00:53:44;11.67;;;2.00;;
5961;SDS011;3007;50.770;0.250;2024-02-23T00:56:12;8.53;;;1.80;;
5961;SDS011;3007;50.770;0.250;2024-02-23T00:58:39;15.83;;;1.70;;
5961;SDS011;3007;50.770;0.250;2024-02-23T01:01:07;4.43;;;1.27;;
5961;SDS011;3007;50.770;0.250;2024-02-23T01:03:34;12.30;;;2.13;;
5961;SDS011;3007;50.770;0.250;2024-02-23T01:06:01;14.83;;;2.13;;
5961;SDS011;3007;50.770;0.250;2024-02-23T01:08:27;14.17;;;1.90;;
5961;SDS011;3007;50.770;0.250;2024-02-23T01:10:54;15.73;;;2.83;;
5961;SDS011;3007;50.770;0.250;2024-02-23T01:13:21;10.47;;;2.03;;
5961;SDS011;3007;50.770;0.250;2024-02-23T01:15:48;14.07;;;2.13;;
5961;SDS011;3007;50.770;0.250;2024-02-23T01:18:16;14.23;;;2.70;;
5961;SDS011;3007;50.770;0.250;2024-02-23T01:20:43;23.07;;;3.07;;
5961;SDS011;3007;50.770;0.250;2024-02-23T01:23:10;20.83;;;2.93;;
5961;SDS011;3007;50.770;0.250;2024-02-23T01:25:36;15.47;;;2.10;;
5961;SDS011;3007;50.770;0.250;2024-02-23T01:28:04;21.67;;;4.03;;
5961;SDS011;3007;50.770;0.250;2024-02-23T01:30:31;17.77;;;3.07;;
5961;SDS011;3007;50.770;0.250;2024-02-23T01:32:58;17.63;;;3.20;;
5961;SDS011;3007;50.770;0.250;2024-02-23T01:35:27;15.47;;;2.87;;
5961;SDS011;3007;50.770;0.250;2024-02-23T01:37:55;18.67;;;3.77;;
5961;SDS011;3007;50.770;0.250;2024-02-23T01:40:22;24.07;;;3.30;;
5961;SDS011;3007;50.770;0.250;2024-02-23T01:42:49;29.90;;;3.30;;
5961;SDS011;3007;50.770;0.250;2024-02-23T01:45:25;23.43;;;3.40;;
5961;SDS011;3007;50.770;0.250;2024-02-23T01:47:53;20.17;;;3.47;;
5961;SDS011;3007;50.770;0.250;2024-02-23T01:50:20;20.90;;;2.57;;
5961;SDS011;3007;50.770;0.250;2024-02-23T01:52:48;7.03;;;1.30;;
5961;SDS011;3007;50.770;0.250;2024-02-23T01:55:16;8.20;;;1.10;;
5961;SDS011;3007;50.770;0.250;2024-02-23T01:57:44;7.40;;;1.57;;
5961;SDS011;3007;50.770;0.250;2024-02-23T02:00:13;7.43;;;1.37;;
5961;SDS011;3007;50.770;0.250;2024-02-23T02:02:42;10.33;;;2.33;;
5961;SDS011;3007;50.770;0.250;2024-02-23T02:05:09;10.70;;;1.90;;
5961;SDS011;3007;50.770;0.250;2024-02-23T02:07:36;9.67;;;2.03;;
5961;SDS011;3007;50.770;0.250;2024-02-23T02:10:06;17.33;;;2.63;;
5961;SDS011;3007;50.770;0.250;2024-02-23T02:12:35;10.77;;;1.90;;
5961;SDS011;3007;50.770;0.250;2024-02-23T02:15:02;11.00;;;2.13;;
5961;SDS011;3007;50.770;0.250;2024-02-23T02:17:30;11.43;;;2.87;;
5961;SDS011;3007;50.770;0.250;2024-02-23T02:19:57;13.10;;;2.60;;
5961;SDS011;3007;50.770;0.250;2024-02-23T02:22:29;19.97;;;3.37;;
5961;SDS011;3007;50.770;0.250;2024-02-23T02:24:57;28.33;;;3.53;;
5961;SDS011;3007;50.770;0.250;2024-02-23T02:27:26;27.23;;;3.33;;
5961;SDS011;3007;50.770;0.250;2024-02-23T02:29:52;14.60;;;2.40;;
5961;SDS011;3007;50.770;0.250;2024-02-23T02:32:19;13.00;;;2.70;;
5961;SDS011;3007;50.770;0.250;2024-02-23T02:34:46;10.60;;;2.47;;
5961;SDS011;3007;50.770;0.250;2024-02-23T02:37:13;8.27;;;2.00;;
5961;SDS011;3007;50.770;0.250;2024-02-23T02:39:40;10.47;;;2.00;;
5961;SDS011;3007;50.770;0.250;2024-02-23T02:42:07;16.10;;;3.10;;
5961;SDS011;3007;50.770;0.250;2024-02-23T02:44:35;13.40;;;3.43;;
5961;SDS011;3007;50.770;0.250;2024-02-23T02:47:02;15.70;;;2.47;;
5961;SDS011;3007;50.770;0.250;2024-02-23T02:49:29;13.77;;;2.70;;
5961;SDS011;3007;50.770;0.250;2024-02-23T02:51:55;13.53;;;2.00;;
5961;SDS011;3007;50.770;0.250;2024-02-23T02:54:22;15.23;;;2.23;;
5961;SDS011;3007;50.770;0.250;2024-02-23T02:56:49;18.53;;;2.20;;
5961;SDS011;3007;50.770;0.250;2024-02-23T02:59:19;19.73;;;2.93;;
5961;SDS011;3007;50.770;0.250;2024-02-23T03:01:47;16.67;;;2.67;;
5961;SDS011;3007;50.770;0.250;2024-02-23T03:04:14;15.27;;;3.10;;
5961;SDS011;3007;50.770;0.250;2024-02-23T03:06:41;22.73;;;3.33;;
5961;SDS011;3007;50.770;0.250;2024-02-23T03:09:08;14.00;;;3.47;;
5961;SDS011;3007;50.770;0.250;2024-02-23T03:11:35;7.27;;;1.63;;
5961;SDS011;3007;50.770;0.250;2024-02-23T03:14:02;6.77;;;1.17;;
5961;SDS011;3007;50.770;0.250;2024-02-23T03:16:29;11.10;;;1.87;;
5961;SDS011;3007;50.770;0.250;2024-02-23T03:18:58;22.63;;;3.57;;
5961;SDS011;3007;50.770;0.250;2024-02-23T03:21:24;16.47;;;2.73;;
5961;SDS011;3007;50.770;0.250;2024-02-23T03:23:51;12.77;;;2.17;;
5961;SDS011;3007;50.770;0.250;2024-02-23T03:26:18;17.17;;;2.17;;
5961;SDS011;3007;50.770;0.250;2024-02-23T03:28:45;14.33;;;2.10;;
5961;SDS011;3007;50.770;0.250;2024-02-23T03:31:13;16.97;;;2.37;;
5961;SDS011;3007;50.770;0.250;2024-02-23T03:33:40;7.37;;;1.40;;
5961;SDS011;3007;50.770;0.250;2024-02-23T03:36:08;12.13;;;2.13;;
5961;SDS011;3007;50.770;0.250;2024-02-23T03:38:35;14.27;;;2.43;;
5961;SDS011;3007;50.770;0.250;2024-02-23T03:41:02;11.70;;;2.37;;
5961;SDS011;3007;50.770;0.250;2024-02-23T03:43:29;13.27;;;2.33;;
5961;SDS011;3007;50.770;0.250;2024-02-23T03:45:56;21.70;;;2.90;;
5961;SDS011;3007;50.770;0.250;2024-02-23T03:48:23;15.03;;;3.03;;
5961;SDS011;3007;50.770;0.250;2024-02-23T03:50:50;20.43;;;2.80;;
5961;SDS011;3007;50.770;0.250;2024-02-23T03:53:18;13.93;;;2.07;;
5961;SDS011;3007;50.770;0.250;2024-02-23T03:55:45;10.83;;;1.87;;
5961;SDS011;3007;50.770;0.250;2024-02-23T03:58:12;6.97;;;1.83;;
5961;SDS011;3007;50.770;0.250;2024-02-23T04:00:39;3.33;;;1.00;;
5961;SDS011;3007;50.770;0.250;2024-02-23T04:03:05;12.70;;;1.80;;
5961;SDS011;3007;50.770;0.250;2024-02-23T04:05:34;12.53;;;1.70;;
5961;SDS011;3007;50.770;0.250;2024-02-23T04:08:00;17.03;;;2.70;;
5961;SDS011;3007;50.770;0.250;2024-02-23T04:10:29;24.50;;;3.77;;
5961;SDS011;3007;50.770;0.250;2024-02-23T04:12:57;17.47;;;3.60;;
5961;SDS011;3007;50.770;0.250;2024-02-23T04:15:24;17.17;;;3.07;;
5961;SDS011;3007;50.770;0.250;2024-02-23T04:17:51;16.53;;;2.70;;
5961;SDS011;3007;50.770;0.250;2024-02-23T04:20:18;18.33;;;2.77;;
5961;SDS011;3007;50.770;0.250;2024-02-23T04:22:44;14.70;;;2.33;;
5961;SDS011;3007;50.770;0.250;2024-02-23T04:25:11;13.00;;;2.43;;
5961;SDS011;3007;50.770;0.250;2024-02-23T04:27:40;14.60;;;2.57;;
5961;SDS011;3007;50.770;0.250;2024-02-23T04:30:08;16.70;;;3.60;;
5961;SDS011;3007;50.770;0.250;2024-02-23T04:32:36;14.73;;;2.50;;
5961;SDS011;3007;50.770;0.250;2024-02-23T04:35:03;20.50;;;3.40;;
5961;SDS011;3007;50.770;0.250;2024-02-23T04:37:30;14.67;;;2.37;;
5961;SDS011;3007;50.770;0.250;2024-02-23T04:39:57;12.53;;;3.10;;
5961;SDS011;3007;50.770;0.250;2024-02-23T04:42:24;11.90;;;2.13;;
5961;SDS011;3007;50.770;0.250;2024-02-23T04:44:52;14.07;;;2.27;;
5961;SDS011;3007;50.770;0.250;2024-02-23T04:47:20;17.53;;;2.87;;
5961;SDS011;3007;50.770;0.250;2024-02-23T04:49:46;12.87;;;2.20;;
5961;SDS011;3007;50.770;0.250;2024-02-23T04:52:14;9.33;;;2.23;;
5961;SDS011;3007;50.770;0.250;2024-02-23T04:54:41;15.70;;;2.07;;
5961;SDS011;3007;50.770;0.250;2024-02-23T04:57:08;11.03;;;2.00;;
5961;SDS011;3007;50.770;0.250;2024-02-23T04:59:34;13.10;;;2.10;;
5961;SDS011;3007;50.770;0.250;2024-02-23T05:02:03;12.73;;;2.27;;
5961;SDS011;3007;50.770;0.250;2024-02-23T05:04:30;13.03;;;2.10;;
5961;SDS011;3007;50.770;0.250;2024-02-23T05:06:58;11.80;;;2.43;;
5961;SDS011;3007;50.770;0.250;2024-02-23T05:09:26;14.43;;;2.83;;
5961;SDS011;3007;50.770;0.250;2024-02-23T05:11:54;12.30;;;2.57;;
5961;SDS011;3007;50.770;0.250;2024-02-23T05:14:21;16.30;;;2.47;;
5961;SDS011;3007;50.770;0.250;2024-02-23T05:16:48;9.33;;;1.57;;
5961;SDS011;3007;50.770;0.250;2024-02-23T05:19:16;8.77;;;1.87;;
5961;SDS011;3007;50.770;0.250;2024-02-23T05:21:43;7.53;;;1.87;;
5961;SDS011;3007;50.770;0.250;2024-02-23T05:24:10;10.13;;;1.93;;
5961;SDS011;3007;50.770;0.250;2024-02-23T05:26:37;13.80;;;2.43;;
5961;SDS011;3007;50.770;0.250;2024-02-23T05:29:04;10.63;;;1.80;;
5961;SDS011;3007;50.770;0.250;2024-02-23T05:31:43;9.70;;;2.50;;
5961;SDS011;3007;50.770;0.250;2024-02-23T05:34:11;12.27;;;2.10;;
5961;SDS011;3007;50.770;0.250;2024-02-23T05:36:40;10.70;;;2.37;;
5961;SDS011;3007;50.770;0.250;2024-02-23T05:39:07;12.77;;;2.10;;
5961;SDS011;3007;50.770;0.250;2024-02-23T05:41:34;11.53;;;2.07;;
5961;SDS011;3007;50.770;0.250;2024-02-23T05:44:01;11.47;;;1.67;;
5961;SDS011;3007;50.770;0.250;2024-02-23T05:46:30;11.47;;;1.87;;
5961;SDS011;3007;50.770;0.250;2024-02-23T05:48:57;10.50;;;1.70;;
5961;SDS011;3007;50.770;0.250;2024-02-23T05:51:24;12.33;;;1.67;;
5961;SDS011;3007;50.770;0.250;2024-02-23T05:53:52;9.13;;;1.90;;
5961;SDS011;3007;50.770;0.250;2024-02-23T05:56:19;8.40;;;1.90;;
5961;SDS011;3007;50.770;0.250;2024-02-23T05:58:46;12.87;;;2.60;;
5961;SDS011;3007;50.770;0.250;2024-02-23T06:01:13;6.83;;;1.40;;
5961;SDS011;3007;50.770;0.250;2024-02-23T06:03:40;15.00;;;1.93;;
5961;SDS011;3007;50.770;0.250;2024-02-23T06:06:07;7.27;;;1.63;;
5961;SDS011;3007;50.770;0.250;2024-02-23T06:08:37;9.97;;;1.93;;
5961;SDS011;3007;50.770;0.250;2024-02-23T06:11:05;12.00;;;2.27;;
5961;SDS011;3007;50.770;0.250;2024-02-23T06:13:32;7.17;;;1.80;;
5961;SDS011;3007;50.770;0.250;2024-02-23T06:15:59;13.03;;;2.10;;
5961;SDS011;3007;50.770;0.250;2024-02-23T06:18:26;8.30;;;2.03;;
5961;SDS011;3007;50.770;0.250;2024-02-23T06:20:52;10.23;;;2.20;;
5961;SDS011;3007;50.770;0.250;2024-02-23T06:23:19;10.17;;;2.30;;
5961;SDS011;3007;50.770;0.250;2024-02-23T06:25:47;14.77;;;2.30;;
5961;SDS011;3007;50.770;0.250;2024-02-23T06:28:15;9.20;;;1.70;;
5961;SDS011;3007;50.770;0.250;2024-02-23T06:30:42;6.83;;;1.90;;
5961;SDS011;3007;50.770;0.250;2024-02-23T06:33:09;9.63;;;2.10;;
5961;SDS011;3007;50.770;0.250;2024-02-23T06:35:36;6.77;;;1.50;;
5961;SDS011;3007;50.770;0.250;2024-02-23T06:38:03;11.57;;;1.87;;
5961;SDS011;3007;50.770;0.250;2024-02-23T06:40:30;13.27;;;1.67;;
5961;SDS011;3007;50.770;0.250;2024-02-23T06:42:57;14.40;;;1.77;;
5961;SDS011;3007;50.770;0.250;2024-02-23T06:45:26;11.57;;;1.50;;
5961;SDS011;3007;50.770;0.250;2024-02-23T06:47:53;9.87;;;2.10;;
5961;SDS011;3007;50.770;0.250;2024-02-23T06:50:20;7.73;;;1.70;;
5961;SDS011;3007;50.770;0.250;2024-02-23T06:52:47;12.23;;;2.20;;
5961;SDS011;3007;50.770;0.250;2024-02-23T06:55:14;9.47;;;1.63;;
5961;SDS011;3007;50.770;0.250;2024-02-23T06:57:42;11.53;;;2.60;;
5961;SDS011;3007;50.770;0.250;2024-02-23T07:00:09;8.47;;;2.17;;
5961;SDS011;3007;50.770;0.250;2024-02-23T07:02:38;10.80;;;1.70;;
5961;SDS011;3007;50.770;0.250;2024-02-23T07:05:05;8.67;;;1.77;;
5961;SDS011;3007;50.770;0.250;2024-02-23T07:07:33;8.57;;;1.63;;
5961;SDS011;3007;50.770;0.250;2024-02-23T07:10:01;11.00;;;1.93;;
5961;SDS011;3007;50.770;0.250;2024-02-23T07:12:28;8.90;;;1.93;;
5961;SDS011;3007;50.770;0.250;2024-02-23T07:14:55;9.93;;;2.00;;
5961;SDS011;3007;50.770;0.250;2024-02-23T07:17:22;10.53;;;2.10;;
5961;SDS011;3007;50.770;0.250;2024-02-23T07:19:50;15.73;;;2.43;;
5961;SDS011;3007;50.770;0.250;2024-02-23T07:22:18;11.53;;;1.93;;
5961;SDS011;3007;50.770;0.250;2024-02-23T07:24:45;7.87;;;1.97;;
5961;SDS011;3007;50.770;0.250;2024-02-23T07:27:12;10.73;;;2.30;;
5961;SDS011;3007;50.770;0.250;2024-02-23T07:29:39;13.97;;;2.10;;
5961;SDS011;3007;50.770;0.250;2024-02-23T07:32:06;8.90;;;1.77;;
5961;SDS011;3007;50.770;0.250;2024-02-23T07:34:33;6.40;;;1.70;;
5961;SDS011;3007;50.770;0.250;2024-02-23T07:37:01;8.93;;;1.60;;
5961;SDS011;3007;50.770;0.250;2024-02-23T07:39:28;12.27;;;1.90;;
5961;SDS011;3007;50.770;0.250;2024-02-23T07:41:55;9.30;;;2.13;;
5961;SDS011;3007;50.770;0.250;2024-02-23T07:44:22;14.63;;;2.63;;
5961;SDS011;3007;50.770;0.250;2024-02-23T07:46:50;10.30;;;2.13;;
5961;SDS011;3007;50.770;0.250;2024-02-23T07:49:17;16.63;;;1.80;;
5961;SDS011;3007;50.770;0.250;2024-02-23T07:51:44;12.80;;;2.13;;
5961;SDS011;3007;50.770;0.250;2024-02-23T07:54:13;11.33;;;2.17;;
5961;SDS011;3007;50.770;0.250;2024-02-23T07:56:40;13.93;;;2.90;;
5961;SDS011;3007;50.770;0.250;2024-02-23T07:59:07;20.73;;;3.63;;
5961;SDS011;3007;50.770;0.250;2024-02-23T08:01:34;14.87;;;2.50;;
5961;SDS011;3007;50.770;0.250;2024-02-23T08:04:01;15.83;;;3.30;;
5961;SDS011;3007;50.770;0.250;2024-02-23T08:06:28;11.93;;;2.97;;
5961;SDS011;3007;50.770;0.250;2024-02-23T08:08:55;12.40;;;2.77;;
5961;SDS011;3007;50.770;0.250;2024-02-23T08:11:23;11.47;;;2.30;;
5961;SDS011;3007;50.770;0.250;2024-02-23T08:13:50;12.43;;;2.13;;
5961;SDS011;3007;50.770;0.250;2024-02-23T08:16:17;11.07;;;3.27;;
5961;SDS011;3007;50.770;0.250;2024-02-23T08:18:43;19.33;;;2.77;;
5961;SDS011;3007;50.770;0.250;2024-02-23T08:21:10;17.17;;;2.80;;
5961;SDS011;3007;50.770;0.250;2024-02-23T08:23:37;17.43;;;3.00;;
5961;SDS011;3007;50.770;0.250;2024-02-23T08:26:05;20.43;;;2.40;;
5961;SDS011;3007;50.770;0.250;2024-02-23T08:28:36;10.77;;;2.67;;
5961;SDS011;3007;50.770;0.250;2024-02-23T08:31:03;22.03;;;2.73;;
5961;SDS011;3007;50.770;0.250;2024-02-23T08:33:30;15.83;;;2.67;;
5961;SDS011;3007;50.770;0.250;2024-02-23T08:35:57;17.33;;;2.70;;
5961;SDS011;3007;50.770;0.250;2024-02-23T08:38:23;13.07;;;2.03;;
5961;SDS011;3007;50.770;0.250;2024-02-23T08:40:50;12.40;;;2.30;;
5961;SDS011;3007;50.770;0.250;2024-02-23T08:43:17;10.40;;;2.67;;
5961;SDS011;3007;50.770;0.250;2024-02-23T08:45:46;17.90;;;3.37;;
5961;SDS011;3007;50.770;0.250;2024-02-23T08:48:13;13.50;;;2.93;;
5961;SDS011;3007;50.770;0.250;2024-02-23T08:50:41;13.27;;;3.10;;
5961;SDS011;3007;50.770;0.250;2024-02-23T08:53:07;9.27;;;1.80;;
5961;SDS011;3007;50.770;0.250;2024-02-23T08:55:34;16.07;;;3.03;;
5961;SDS011;3007;50.770;0.250;2024-02-23T08:58:01;12.80;;;3.10;;
5961;SDS011;3007;50.770;0.250;2024-02-23T09:00:28;14.67;;;2.70;;
5961;SDS011;3007;50.770;0.250;2024-02-23T09:02:56;18.20;;;3.10;;
5961;SDS011;3007;50.770;0.250;2024-02-23T09:05:23;15.03;;;2.40;;
5961;SDS011;3007;50.770;0.250;2024-02-23T09:07:50;13.73;;;2.37;;
5961;SDS011;3007;50.770;0.250;2024-02-23T09:10:17;17.37;;;3.13;;
5961;SDS011;3007;50.770;0.250;2024-02-23T09:12:44;14.77;;;3.20;;
5961;SDS011;3007;50.770;0.250;2024-02-23T09:15:10;15.23;;;2.80;;
5961;SDS011;3007;50.770;0.250;2024-02-23T09:17:39;16.50;;;3.27;;
5961;SDS011;3007;50.770;0.250;2024-02-23T09:20:08;14.80;;;2.80;;
5961;SDS011;3007;50.770;0.250;2024-02-23T09:22:36;16.40;;;2.70;;
5961;SDS011;3007;50.770;0.250;2024-02-23T09:25:03;14.63;;;2.23;;
5961;SDS011;3007;50.770;0.250;2024-02-23T09:27:30;15.23;;;2.43;;
5961;SDS011;3007;50.770;0.250;2024-02-23T09:29:58;12.30;;;2.43;;
5961;SDS011;3007;50.770;0.250;2024-02-23T09:32:24;21.67;;;3.53;;
5961;SDS011;3007;50.770;0.250;2024-02-23T09:34:51;10.20;;;2.83;;
5961;SDS011;3007;50.770;0.250;2024-02-23T09:37:19;17.17;;;3.07;;
5961;SDS011;3007;50.770;0.250;2024-02-23T09:39:46;18.40;;;3.50;;
5961;SDS011;3007;50.770;0.250;2024-02-23T09:42:13;13.53;;;2.97;;
5961;SDS011;3007;50.770;0.250;2024-02-23T09:44:41;16.57;;;3.00;;
5961;SDS011;3007;50.770;0.250;2024-02-23T09:47:10;15.70;;;2.93;;
5961;SDS011;3007;50.770;0.250;2024-02-23T09:49:39;18.23;;;3.33;;
5961;SDS011;3007;50.770;0.250;2024-02-23T09:52:11;19.40;;;3.20;;
5961;SDS011;3007;50.770;0.250;2024-02-23T09:54:40;11.70;;;2.93;;
5961;SDS011;3007;50.770;0.250;2024-02-23T09:57:07;10.47;;;2.90;;
5961;SDS011;3007;50.770;0.250;2024-02-23T09:59:35;17.70;;;3.17;;
5961;SDS011;3007;50.770;0.250;2024-02-23T10:02:02;18.70;;;3.13;;
5961;SDS011;3007;50.770;0.250;2024-02-23T10:04:35;18.30;;;3.50;;
5961;SDS011;3007;50.770;0.250;2024-02-23T10:07:04;14.13;;;2.50;;
5961;SDS011;3007;50.770;0.250;2024-02-23T10:09:31;15.87;;;2.77;;
5961;SDS011;3007;50.770;0.250;2024-02-23T10:11:59;16.40;;;3.33;;
5961;SDS011;3007;50.770;0.250;2024-02-23T10:14:26;18.93;;;2.87;;
5961;SDS011;3007;50.770;0.250;2024-02-23T10:16:52;21.30;;;3.27;;
5961;SDS011;3007;50.770;0.250;2024-02-23T10:19:20;18.65;;;3.95;;
5961;SDS011;3007;50.770;0.250;2024-02-23T10:21:47;19.27;;;3.50;;
5961;SDS011;3007;50.770;0.250;2024-02-23T10:24:15;11.47;;;2.43;;
5961;SDS011;3007;50.770;0.250;2024-02-23T10:26:42;13.33;;;2.83;;
5961;SDS011;3007;50.770;0.250;2024-02-23T10:29:11;18.47;;;2.93;;
5961;SDS011;3007;50.770;0.250;2024-02-23T10:31:38;14.97;;;2.23;;
5961;SDS011;3007;50.770;0.250;2024-02-23T10:34:07;11.43;;;2.10;;
5961;SDS011;3007;50.770;0.250;2024-02-23T10:36:37;13.50;;;2.00;;
5961;SDS011;3007;50.770;0.250;2024-02-23T10:39:07;12.97;;;2.87;;
5961;SDS011;3007;50.770;0.250;2024-02-23T10:41:35;11.73;;;2.30;;
5961;SDS011;3007;50.770;0.250;2024-02-23T10:44:03;10.80;;;2.20;;
5961;SDS011;3007;50.770;0.250;2024-02-23T10:46:31;13.87;;;2.50;;
5961;SDS011;3007;50.770;0.250;2024-02-23T10:48:58;16.47;;;2.53;;
5961;SDS011;3007;50.770;0.250;2024-02-23T10:51:27;8.77;;;1.80;;
5961;SDS011;3007;50.770;0.250;2024-02-23T10:53:54;15.80;;;2.70;;
5961;SDS011;3007;50.770;0.250;2024-02-23T10:56:22;13.20;;;2.60;;
5961;SDS011;3007;50.770;0.250;2024-02-23T10:58:51;13.27;;;2.70;;
5961;SDS011;3007;50.770;0.250;2024-02-23T11:01:17;15.43;;;2.83;;
5961;SDS011;3007;50.770;0.250;2024-02-23T11:03:47;12.33;;;2.73;;
5961;SDS011;3007;50.770;0.250;2024-02-23T11:06:16;14.20;;;2.73;;
5961;SDS011;3007;50.770;0.250;2024-02-23T11:08:46;12.07;;;2.03;;
5961;SDS011;3007;50.770;0.250;2024-02-23T11:11:13;16.67;;;2.67;;
5961;SDS011;3007;50.770;0.250;2024-02-23T11:13:43;9.90;;;2.13;;
5961;SDS011;3007;50.770;0.250;2024-02-23T11:16:12;4.60;;;1.13;;
5961;SDS011;3007;50.770;0.250;2024-02-23T11:18:49;4.73;;;1.43;;
5961;SDS011;3007;50.770;0.250;2024-02-23T11:21:33;6.07;;;1.30;;
5961;SDS011;3007;50.770;0.250;2024-02-23T11:24:02;7.83;;;1.93;;
5961;SDS011;3007;50.770;0.250;2024-02-23T11:26:30;7.77;;;1.60;;
5961;SDS011;3007;50.770;0.250;2024-02-23T11:28:58;7.30;;;1.50;;
5961;SDS011;3007;50.770;0.250;2024-02-23T11:31:29;10.47;;;2.00;;
5961;SDS011;3007;50.770;0.250;2024-02-23T11:33:57;9.53;;;1.60;;
5961;SDS011;3007;50.770;0.250;2024-02-23T11:36:29;6.93;;;2.17;;
5961;SDS011;3007;50.770;0.250;2024-02-23T11:38:58;12.30;;;1.63;;
5961;SDS011;3007;50.770;0.250;2024-02-23T11:41:27;13.23;;;1.73;;
5961;SDS011;3007;50.770;0.250;2024-02-23T11:43:55;7.50;;;2.10;;
5961;SDS011;3007;50.770;0.250;2024-02-23T11:46:23;10.53;;;1.70;;
5961;SDS011;3007;50.770;0.250;2024-02-23T11:48:50;11.53;;;1.57;;
5961;SDS011;3007;50.770;0.250;2024-02-23T11:51:23;6.73;;;2.13;;
5961;SDS011;3007;50.770;0.250;2024-02-23T11:53:52;4.43;;;1.40;;
5961;SDS011;3007;50.770;0.250;2024-02-23T11:56:21;11.30;;;1.50;;
5961;SDS011;3007;50.770;0.250;2024-02-23T11:58:49;8.50;;;1.63;;
5961;SDS011;3007;50.770;0.250;2024-02-23T12:01:15;5.97;;;1.37;;
5961;SDS011;3007;50.770;0.250;2024-02-23T12:03:44;10.30;;;1.50;;
5961;SDS011;3007;50.770;0.250;2024-02-23T12:06:11;9.00;;;1.67;;
5961;SDS011;3007;50.770;0.250;2024-02-23T12:08:41;6.03;;;1.30;;
5961;SDS011;3007;50.770;0.250;2024-02-23T12:11:10;7.90;;;1.93;;
5961;SDS011;3007;50.770;0.250;2024-02-23T12:13:39;11.77;;;2.73;;
5961;SDS011;3007;50.770;0.250;2024-02-23T12:16:06;9.70;;;2.00;;
5961;SDS011;3007;50.770;0.250;2024-02-23T12:18:34;9.10;;;2.10;;
5961;SDS011;3007;50.770;0.250;2024-02-23T12:21:02;10.67;;;1.50;;
5961;SDS011;3007;50.770;0.250;2024-02-23T12:23:38;8.60;;;1.47;;
5961;SDS011;3007;50.770;0.250;2024-02-23T12:26:10;5.00;;;1.00;;
5961;SDS011;3007;50.770;0.250;2024-02-23T12:28:39;4.83;;;0.93;;
5961;SDS011;3007;50.770;0.250;2024-02-23T12:31:06;3.87;;;0.90;;
5961;SDS011;3007;50.770;0.250;2024-02-23T12:33:33;5.07;;;1.23;;
5961;SDS011;3007;50.770;0.250;2024-02-23T12:36:01;6.60;;;2.30;;
5961;SDS011;3007;50.770;0.250;2024-02-23T12:38:29;5.03;;;1.30;;
5961;SDS011;3007;50.770;0.250;2024-02-23T12:40:58;4.93;;;0.87;;
5961;SDS011;3007;50.770;0.250;2024-02-23T12:43:25;4.37;;;1.03;;
5961;SDS011;3007;50.770;0.250;2024-02-23T12:45:53;10.40;;;1.40;;
5961;SDS011;3007;50.770;0.250;2024-02-23T12:48:20;12.10;;;1.73;;
5961;SDS011;3007;50.770;0.250;2024-02-23T12:50:47;9.73;;;1.63;;
5961;SDS011;3007;50.770;0.250;2024-02-23T12:53:29;6.00;;;1.37;;
5961;SDS011;3007;50.770;0.250;2024-02-23T12:55:59;8.90;;;1.50;;
5961;SDS011;3007;50.770;0.250;2024-02-23T12:58:27;7.77;;;1.50;;
5961;SDS011;3007;50.770;0.250;2024-02-23T13:00:54;7.53;;;1.23;;
5961;SDS011;3007;50.770;0.250;2024-02-23T13:03:21;8.03;;;1.30;;
5961;SDS011;3007;50.770;0.250;2024-02-23T13:05:49;6.73;;;1.03;;
5961;SDS011;3007;50.770;0.250;2024-02-23T13:08:15;4.20;;;0.77;;
5961;SDS011;3007;50.770;0.250;2024-02-23T13:10:43;1.90;;;0.53;;
5961;SDS011;3007;50.770;0.250;2024-02-23T13:13:11;4.83;;;0.70;;
5961;SDS011;3007;50.770;0.250;2024-02-23T13:15:39;4.13;;;0.93;;
5961;SDS011;3007;50.770;0.250;2024-02-23T13:18:06;4.80;;;0.90;;
5961;SDS011;3007;50.770;0.250;2024-02-23T13:20:34;3.23;;;0.70;;
5961;SDS011;3007;50.770;0.250;2024-02-23T13:23:00;4.57;;;0.93;;
5961;SDS011;3007;50.770;0.250;2024-02-23T13:25:27;5.40;;;1.07;;
5961;SDS011;3007;50.770;0.250;2024-02-23T13:27:55;4.33;;;0.80;;
5961;SDS011;3007;50.770;0.250;2024-02-23T13:30:24;3.83;;;0.73;;
5961;SDS011;3007;50.770;0.250;2024-02-23T13:32:51;4.63;;;0.87;;
5961;SDS011;3007;50.770;0.250;2024-02-23T13:35:18;4.37;;;0.80;;
5961;SDS011;3007;50.770;0.250;2024-02-23T13:37:45;4.27;;;0.77;;
5961;SDS011;3007;50.770;0.250;2024-02-23T13:40:13;5.10;;;0.90;;
5961;SDS011;3007;50.770;0.250;2024-02-23T13:42:40;5.63;;;1.03;;
5961;SDS011;3007;50.770;0.250;2024-02-23T13:45:08;4.83;;;1.00;;
5961;SDS011;3007;50.770;0.250;2024-02-23T13:47:40;6.67;;;0.97;;
5961;SDS011;3007;50.770;0.250;2024-02-23T13:50:08;6.27;;;1.07;;
5961;SDS011;3007;50.770;0.250;2024-02-23T13:52:35;3.23;;;0.70;;
5961;SDS011;3007;50.770;0.250;2024-02-23T13:55:02;2.07;;;0.80;;
5961;SDS011;3007;50.770;0.250;2024-02-23T13:57:30;3.73;;;0.60;;
5961;SDS011;3007;50.770;0.250;2024-02-23T13:59:57;1.67;;;0.70;;
5961;SDS011;3007;50.770;0.250;2024-02-23T14:02:25;3.67;;;0.70;;
5961;SDS011;3007;50.770;0.250;2024-02-23T14:04:59;2.40;;;0.30;;
5961;SDS011;3007;50.770;0.250;2024-02-23T14:07:28;2.50;;;0.90;;
5961;SDS011;3007;50.770;0.250;2024-02-23T14:09:55;3.67;;;0.87;;
5961;SDS011;3007;50.770;0.250;2024-02-23T14:12:22;3.77;;;0.80;;
5961;SDS011;3007;50.770;0.250;2024-02-23T14:14:49;4.00;;;0.60;;
5961;SDS011;3007;50.770;0.250;2024-02-23T14:17:16;5.10;;;1.00;;
5961;SDS011;3007;50.770;0.250;2024-02-23T14:19:42;2.93;;;0.70;;
5961;SDS011;3007;50.770;0.250;2024-02-23T14:22:11;3.33;;;0.70;;
5961;SDS011;3007;50.770;0.250;2024-02-23T14:24:37;1.77;;;0.57;;
5961;SDS011;3007;50.770;0.250;2024-02-23T14:27:05;3.93;;;0.87;;
5961;SDS011;3007;50.770;0.250;2024-02-23T14:29:32;3.77;;;0.77;;
5961;SDS011;3007;50.770;0.250;2024-02-23T14:31:59;8.73;;;1.00;;
5961;SDS011;3007;50.770;0.250;2024-02-23T14:34:26;3.90;;;0.70;;
5961;SDS011;3007;50.770;0.250;2024-02-23T14:36:54;5.20;;;0.80;;
5961;SDS011;3007;50.770;0.250;2024-02-23T14:39:23;7.77;;;1.00;;
5961;SDS011;3007;50.770;0.250;2024-02-23T14:41:49;4.13;;;1.00;;
5961;SDS011;3007;50.770;0.250;2024-02-23T14:44:16;1.63;;;0.50;;
5961;SDS011;3007;50.770;0.250;2024-02-23T14:46:43;1.20;;;0.63;;
5961;SDS011;3007;50.770;0.250;2024-02-23T14:49:10;2.40;;;0.53;;
5961;SDS011;3007;50.770;0.250;2024-02-23T14:51:37;2.17;;;0.63;;
5961;SDS011;3007;50.770;0.250;2024-02-23T14:54:06;0.67;;;0.30;;
5961;SDS011;3007;50.770;0.250;2024-02-23T14:56:34;4.07;;;0.50;;
5961;SDS011;3007;50.770;0.250;2024-02-23T14:59:01;6.80;;;0.93;;
5961;SDS011;3007;50.770;0.250;2024-02-23T15:01:28;3.43;;;0.50;;
5961;SDS011;3007;50.770;0.250;2024-02-23T15:03:54;5.90;;;0.67;;
5961;SDS011;3007;50.770;0.250;2024-02-23T15:06:21;6.20;;;0.90;;
5961;SDS011;3007;50.770;0.250;2024-02-23T15:08:49;2.83;;;0.93;;